Time;durP1;ratioP1;P1;durP2;ratioP2;P2;SDS_P1;SDS_P2;PMS_P1;PMS_P2;Temp;Humidity;BMP_temperature;BMP_pressure;BME280_temperature;BME280_humidity;BME280_pressure;Samples;Min_cycle;Max_cycle;Signal;HPM_P1;HPM_P2
2023/04/15 00:01:41;;;;;;;14.45;5.75;;;;;;;8.25;69.90;100680.50;4989269;28;20034;-75
2023/04/15 00:04:07;;;;;;;12.52;5.68;;;;;;;8.17;70.01;100681.84;4991217;28;20022;-75
2023/04/15 00:06:34;;;;;;;11.18;5.60;;;;;;;8.16;70.39;100680.19;4990832;28;20061;-75
2023/04/15 00:09:04;;;;;;;10.52;5.20;;;;;;;8.12;70.32;100676.09;4990642;28;20038;-75
2023/04/15 00:11:31;;;;;;;10.93;5.43;;;;;;;8.10;71.12;100670.09;4990434;28;20027;-75
2023/04/15 00:13:57;;;;;;;11.68;5.43;;;;;;;8.02;70.92;100669.78;4989916;28;20041;-75
2023/04/15 00:16:23;;;;;;;10.52;5.50;;;;;;;7.98;71.39;100670.91;5003690;28;20025;-75
2023/04/15 00:18:48;;;;;;;11.13;5.50;;;;;;;7.93;72.39;100672.97;4973845;28;20026;-75
2023/04/15 00:21:14;;;;;;;11.73;5.20;;;;;;;7.90;71.94;100673.19;4970061;28;20023;-75
2023/04/15 00:23:39;;;;;;;10.55;5.28;;;;;;;7.86;72.70;100677.78;4987050;28;20116;-75
2023/04/15 00:26:04;;;;;;;11.77;5.28;;;;;;;7.80;72.53;100680.81;4998748;28;20376;-75
2023/04/15 00:28:32;;;;;;;13.13;5.65;;;;;;;7.76;72.82;100681.13;5005268;28;20062;-75
2023/04/15 00:30:58;;;;;;;12.13;5.85;;;;;;;7.69;73.30;100678.06;5004807;28;20037;-75
2023/04/15 00:33:24;;;;;;;9.63;5.47;;;;;;;7.65;73.86;100676.59;4985594;28;20034;-75
2023/04/15 00:35:49;;;;;;;13.60;5.82;;;;;;;7.63;74.36;100672.38;4987750;28;20424;-75
2023/04/15 00:38:15;;;;;;;11.85;5.43;;;;;;;7.59;75.00;100681.34;4989211;28;20032;-75
2023/04/15 00:40:41;;;;;;;11.73;5.72;;;;;;;7.52;74.44;100680.91;4989148;28;20018;-75
2023/04/15 00:43:06;;;;;;;9.68;5.95;;;;;;;7.48;75.54;100680.25;4988643;28;20049;-75
2023/04/15 00:45:32;;;;;;;10.85;6.30;;;;;;;7.42;75.44;100672.81;4988504;28;20030;-76
2023/04/15 00:47:58;;;;;;;11.15;5.95;;;;;;;7.38;75.94;100676.56;4988095;28;20340;-75
2023/04/15 00:50:24;;;;;;;10.20;6.25;;;;;;;7.33;76.55;100676.00;4989098;28;20034;-75
2023/04/15 00:52:50;;;;;;;14.57;6.22;;;;;;;7.30;76.16;100673.59;4985151;28;20039;-75
2023/04/15 00:55:16;;;;;;;12.13;6.50;;;;;;;7.24;76.64;100676.59;4968921;28;20061;-75
2023/04/15 00:57:41;;;;;;;14.73;6.95;;;;;;;7.25;77.42;100666.97;4985953;28;20030;-75
2023/04/15 01:00:08;;;;;;;12.73;6.63;;;;;;;7.22;77.08;100673.25;4988848;28;20054;-75
2023/04/15 01:02:35;;;;;;;11.02;6.43;;;;;;;7.19;77.29;100673.41;4988053;28;20041;-75
2023/04/15 01:05:04;;;;;;;14.60;7.03;;;;;;;7.15;77.12;100670.13;4988526;28;20042;-75
2023/04/15 01:07:30;;;;;;;13.75;7.35;;;;;;;7.08;77.78;100670.63;4989707;28;20364;-75
2023/04/15 01:09:56;;;;;;;14.65;7.25;;;;;;;7.08;77.19;100678.47;4985271;28;20081;-75
2023/04/15 01:12:23;;;;;;;11.65;6.63;;;;;;;7.04;77.72;100674.38;4989715;28;20054;-75
2023/04/15 01:14:48;;;;;;;14.57;6.75;;;;;;;7.01;78.07;100677.16;4990038;28;20023;-75
2023/04/15 01:17:16;;;;;;;12.68;7.13;;;;;;;6.97;77.82;100678.31;4989610;28;20387;-75
2023/04/15 01:19:42;;;;;;;13.55;7.45;;;;;;;6.95;78.08;100681.00;4991621;28;20041;-75
2023/04/15 01:22:08;;;;;;;13.52;7.63;;;;;;;6.89;78.04;100674.38;4992436;28;20019;-75
2023/04/15 01:24:35;;;;;;;11.88;7.65;;;;;;;6.82;78.69;100672.25;4992835;28;20022;-76
2023/04/15 01:27:01;;;;;;;13.02;7.32;;;;;;;6.80;78.81;100680.16;4992900;28;20027;-75
2023/04/15 01:29:26;;;;;;;14.02;7.28;;;;;;;6.81;78.58;100675.81;4974420;28;20361;-75
2023/04/15 01:31:53;;;;;;;11.77;7.72;;;;;;;6.79;78.93;100680.25;4974707;28;20061;-75
2023/04/15 01:34:20;;;;;;;12.85;7.35;;;;;;;6.75;79.72;100684.00;4986940;28;20026;-75
2023/04/15 01:36:46;;;;;;;14.18;7.78;;;;;;;6.72;79.80;100678.94;4992010;28;20084;-75
2023/04/15 01:39:12;;;;;;;15.38;7.60;;;;;;;6.73;79.71;100685.84;4992948;28;20030;-75
2023/04/15 01:41:38;;;;;;;13.80;7.47;;;;;;;6.71;79.73;100678.09;4991833;28;20071;-75
2023/04/15 01:44:05;;;;;;;13.05;7.55;;;;;;;6.72;79.63;100673.72;4989958;28;20428;-75
2023/04/15 01:46:31;;;;;;;13.35;7.63;;;;;;;6.68;79.86;100680.06;4984854;28;20383;-75
2023/04/15 01:48:57;;;;;;;11.68;7.40;;;;;;;6.64;80.28;100671.56;4992335;28;20051;-75
2023/04/15 01:51:23;;;;;;;12.63;7.32;;;;;;;6.62;80.57;100676.06;4991918;28;20031;-75
2023/04/15 01:53:48;;;;;;;11.80;7.60;;;;;;;6.57;80.58;100676.34;4992827;28;20053;-76
2023/04/15 01:56:14;;;;;;;11.85;7.93;;;;;;;6.58;81.15;100672.78;5006429;28;20125;-75
2023/04/15 01:58:40;;;;;;;16.52;8.00;;;;;;;6.55;80.88;100667.75;4989355;28;20022;-76
2023/04/15 02:01:05;;;;;;;15.38;8.10;;;;;;;6.50;80.91;100668.97;4992537;28;20026;-76
2023/04/15 02:03:31;;;;;;;18.17;8.07;;;;;;;6.54;80.54;100673.06;4989352;28;20113;-76
2023/04/15 02:05:58;;;;;;;15.05;7.97;;;;;;;6.51;81.45;100670.63;5006617;28;20030;-76
2023/04/15 02:08:24;;;;;;;13.00;7.97;;;;;;;6.51;81.41;100668.03;4991159;28;20042;-75
2023/04/15 02:10:49;;;;;;;13.63;8.05;;;;;;;6.52;81.31;100672.31;4993424;28;20030;-76
2023/04/15 02:13:15;;;;;;;14.60;7.75;;;;;;;6.53;81.15;100674.84;4991067;28;20026;-76
2023/04/15 02:15:47;;;;;;;13.02;8.43;;;;;;;6.50;81.17;100679.41;4993585;28;20383;-76
2023/04/15 02:18:13;;;;;;;15.30;8.20;;;;;;;6.49;81.38;100672.50;4988540;28;20026;-76
2023/04/15 02:20:39;;;;;;;10.25;7.78;;;;;;;6.43;81.58;100692.00;4990049;28;20690;-76
2023/04/15 02:23:06;;;;;;;15.30;8.18;;;;;;;6.42;81.72;100681.66;4992929;28;20371;-76
2023/04/15 02:25:31;;;;;;;12.90;8.27;;;;;;;6.39;82.25;100687.88;4992929;28;20026;-76
2023/04/15 02:27:57;;;;;;;16.45;8.10;;;;;;;6.36;82.26;100684.59;4993557;28;20040;-75
2023/04/15 02:30:24;;;;;;;15.65;8.82;;;;;;;6.33;82.72;100693.47;4990893;28;20473;-76
2023/04/15 02:32:49;;;;;;;11.45;8.45;;;;;;;6.31;82.95;100690.09;4989564;28;20118;-76
2023/04/15 02:35:17;;;;;;;12.55;8.80;;;;;;;6.29;83.12;100700.63;4990434;28;20113;-75
2023/04/15 02:37:44;;;;;;;11.85;8.30;;;;;;;6.25;83.26;100699.13;4992310;28;20037;-75
2023/04/15 02:40:11;;;;;;;14.68;8.48;;;;;;;6.22;83.33;100699.31;5002047;28;20054;-75
2023/04/15 02:42:37;;;;;;;12.98;8.52;;;;;;;6.20;83.73;100711.63;4991905;28;20038;-75
2023/04/15 02:45:04;;;;;;;14.23;8.40;;;;;;;6.12;83.88;100700.78;4992498;28;20427;-75
2023/04/15 02:47:30;;;;;;;12.07;8.77;;;;;;;6.08;84.05;100704.50;4988571;28;20085;-75
2023/04/15 02:49:57;;;;;;;19.23;8.90;;;;;;;6.10;83.94;100709.66;4992471;28;20419;-75
2023/04/15 02:52:23;;;;;;;14.25;8.60;;;;;;;6.03;84.29;100711.78;4989253;28;20865;-75
2023/04/15 02:54:49;;;;;;;13.60;8.50;;;;;;;6.02;84.71;100712.69;4991260;28;20022;-75
2023/04/15 02:57:14;;;;;;;16.63;9.27;;;;;;;6.04;85.24;100718.69;4990684;28;20124;-74
2023/04/15 02:59:45;;;;;;;16.27;9.75;;;;;;;5.98;85.15;100719.00;4988667;28;20110;-74
2023/04/15 03:02:10;;;;;;;12.63;9.00;;;;;;;5.94;85.25;100717.50;4987331;28;20029;-74
2023/04/15 03:04:36;;;;;;;14.98;9.68;;;;;;;5.92;85.50;100717.59;4991166;28;20456;-74
2023/04/15 03:07:01;;;;;;;12.77;9.20;;;;;;;5.88;85.33;100718.66;4990779;28;20041;-76
2023/04/15 03:09:27;;;;;;;14.77;10.02;;;;;;;5.85;85.72;100723.22;4984731;28;20486;-74
2023/04/15 03:11:53;;;;;;;14.40;8.85;;;;;;;5.84;86.23;100721.53;4972034;28;20749;-74
2023/04/15 03:14:19;;;;;;;15.02;9.60;;;;;;;5.84;86.03;100721.53;4986569;28;20031;-75
2023/04/15 03:16:45;;;;;;;12.70;9.05;;;;;;;5.78;86.62;100720.09;4991370;28;20026;-75
2023/04/15 03:19:11;;;;;;;14.05;9.98;;;;;;;5.79;87.09;100726.16;4990426;28;20026;-75
2023/04/15 03:21:36;;;;;;;12.50;9.80;;;;;;;5.71;86.93;100725.75;4990334;28;20487;-75
2023/04/15 03:24:05;;;;;;;12.82;9.52;;;;;;;5.64;87.27;100730.50;4990980;28;20375;-75
2023/04/15 03:26:31;;;;;;;14.25;10.15;;;;;;;5.59;87.46;100728.09;4990774;28;20553;-74
2023/04/15 03:28:57;;;;;;;12.98;9.50;;;;;;;5.57;88.15;100735.19;4991672;28;20390;-75
2023/04/15 03:31:23;;;;;;;14.63;10.15;;;;;;;5.51;88.55;100740.75;4991540;28;20034;-74
2023/04/15 03:33:49;;;;;;;15.52;9.45;;;;;;;5.49;88.59;100745.19;4990155;28;20564;-74
2023/04/15 03:36:15;;;;;;;16.60;10.00;;;;;;;5.47;88.77;100748.81;4989863;28;20034;-76
2023/04/15 03:38:42;;;;;;;14.63;10.18;;;;;;;5.42;89.13;100746.47;4991207;28;20057;-74
2023/04/15 03:41:08;;;;;;;10.60;9.52;;;;;;;5.41;89.39;100739.56;4988647;28;20040;-74
2023/04/15 03:43:34;;;;;;;15.27;10.23;;;;;;;5.35;89.38;100751.19;4991489;28;20026;-74
2023/04/15 03:46:03;;;;;;;13.52;10.02;;;;;;;5.34;89.98;100744.28;4976862;28;20483;-74
2023/04/15 03:48:28;;;;;;;15.13;10.60;;;;;;;5.34;89.96;100746.03;4972534;28;20035;-74
2023/04/15 03:50:54;;;;;;;15.38;10.52;;;;;;;5.28;90.31;100751.59;4990610;28;20031;-75
2023/04/15 03:53:23;;;;;;;14.90;11.18;;;;;;;5.22;90.66;100752.75;4990182;28;20073;-75
2023/04/15 03:55:49;;;;;;;17.08;11.07;;;;;;;5.17;90.76;100761.72;4990194;28;20057;-75
2023/04/15 03:58:14;;;;;;;15.88;11.07;;;;;;;5.12;91.31;100755.91;4990068;28;20101;-75
2023/04/15 04:00:40;;;;;;;12.82;10.88;;;;;;;5.10;91.39;100757.75;4989046;28;20045;-75
2023/04/15 04:03:05;;;;;;;13.40;11.07;;;;;;;5.08;91.93;100764.81;4988541;28;20030;-75
2023/04/15 04:05:31;;;;;;;13.63;11.40;;;;;;;5.03;92.48;100765.06;4989315;28;20018;-75
2023/04/15 04:08:03;;;;;;;16.52;11.88;;;;;;;5.06;92.35;100770.13;4989112;28;20022;-75
2023/04/15 04:10:28;;;;;;;16.42;12.00;;;;;;;4.95;92.84;100770.69;4989814;28;20035;-74
2023/04/15 04:12:53;;;;;;;15.63;11.75;;;;;;;5.02;93.04;100768.59;4989669;28;20030;-74
2023/04/15 04:15:20;;;;;;;14.75;11.25;;;;;;;5.00;93.05;100780.88;4989594;28;20026;-75
2023/04/15 04:17:45;;;;;;;13.45;12.05;;;;;;;4.98;93.73;100773.13;4988422;28;20040;-75
2023/04/15 04:20:11;;;;;;;16.95;12.95;;;;;;;4.99;93.38;100798.28;4985155;28;20022;-74
2023/04/15 04:22:40;;;;;;;15.32;12.30;;;;;;;5.02;93.70;100798.13;4989251;28;20487;-75
2023/04/15 04:25:07;;;;;;;15.40;12.23;;;;;;;5.01;94.00;100799.06;4988075;28;20038;-74
2023/04/15 04:27:34;;;;;;;14.45;12.20;;;;;;;5.00;94.12;100799.97;4989641;28;20479;-74
2023/04/15 04:30:00;;;;;;;16.38;13.18;;;;;;;5.02;94.57;100798.13;4989865;28;20030;-74
2023/04/15 04:32:26;;;;;;;15.45;12.77;;;;;;;5.01;94.61;100800.81;4986946;28;20038;-74
2023/04/15 04:34:51;;;;;;;15.10;12.95;;;;;;;5.02;94.84;100805.94;4987436;28;20026;-75
2023/04/15 04:37:16;;;;;;;16.40;12.07;;;;;;;5.02;94.65;100805.94;4979376;28;20037;-75
2023/04/15 04:39:42;;;;;;;14.10;12.63;;;;;;;5.01;95.08;100812.09;4982717;28;20546;-75
2023/04/15 04:42:08;;;;;;;14.73;12.13;;;;;;;4.99;94.91;100811.31;4990309;28;20049;-75
2023/04/15 04:44:34;;;;;;;14.70;13.10;;;;;;;4.96;95.12;100819.31;4990925;28;20022;-75
2023/04/15 04:47:06;;;;;;;15.60;13.20;;;;;;;4.97;95.93;100823.59;4989841;28;20494;-75
2023/04/15 04:49:32;;;;;;;14.48;12.98;;;;;;;5.00;95.64;100831.25;4991392;28;20415;-76
2023/04/15 04:51:57;;;;;;;15.35;13.00;;;;;;;5.03;95.90;100827.66;4990936;28;20060;-75
2023/04/15 04:54:23;;;;;;;15.68;12.52;;;;;;;5.02;95.97;100829.41;4985049;28;20026;-75
2023/04/15 04:56:48;;;;;;;17.77;13.10;;;;;;;5.01;96.29;100835.56;4989906;28;20030;-76
2023/04/15 04:59:14;;;;;;;16.35;12.95;;;;;;;5.02;96.41;100846.81;4989611;28;20029;-75
2023/04/15 05:01:40;;;;;;;15.35;12.85;;;;;;;5.04;96.48;100843.22;4990214;28;20026;-76
2023/04/15 05:04:06;;;;;;;15.50;12.93;;;;;;;5.03;96.51;100849.34;4989934;28;20034;-74
2023/04/15 05:06:32;;;;;;;16.77;13.23;;;;;;;5.07;97.00;100854.41;4990573;28;20109;-75
2023/04/15 05:08:58;;;;;;;15.45;13.75;;;;;;;5.07;96.70;100849.19;4988891;28;20376;-74
2023/04/15 05:11:25;;;;;;;14.23;12.75;;;;;;;5.09;96.70;100857.78;4988158;28;20065;-74
2023/04/15 05:13:50;;;;;;;15.60;13.05;;;;;;;5.09;96.89;100863.00;4989850;28;20057;-75
2023/04/15 05:16:16;;;;;;;15.15;13.15;;;;;;;5.12;97.52;100868.06;5003229;28;20031;-74
2023/04/15 05:18:41;;;;;;;15.60;13.60;;;;;;;5.13;97.51;100867.97;4990089;28;20014;-75
2023/04/15 05:21:08;;;;;;;16.35;14.18;;;;;;;5.15;97.51;100873.09;4988827;28;20026;-75
2023/04/15 05:23:37;;;;;;;17.85;14.02;;;;;;;5.17;97.90;100876.47;4988985;28;20109;-74
2023/04/15 05:26:03;;;;;;;16.08;13.77;;;;;;;5.19;97.55;100880.69;4987399;28;20491;-74
2023/04/15 05:28:28;;;;;;;17.52;13.90;;;;;;;5.22;97.41;100885.78;4989915;28;20081;-75
2023/04/15 05:30:55;;;;;;;15.50;13.77;;;;;;;5.25;97.55;100885.63;4988307;28;20113;-75
2023/04/15 05:33:20;;;;;;;15.77;14.07;;;;;;;5.25;97.48;100884.78;4989217;28;20032;-75
2023/04/15 05:35:45;;;;;;;17.33;13.90;;;;;;;5.26;97.82;100896.91;5003871;28;20026;-75
2023/04/15 05:38:11;;;;;;;17.67;13.30;;;;;;;5.30;97.81;100901.03;4986869;28;20038;-75
2023/04/15 05:40:36;;;;;;;15.98;14.27;;;;;;;5.31;98.11;100906.19;4997368;28;20054;-75
2023/04/15 05:43:01;;;;;;;18.65;14.40;;;;;;;5.33;97.73;100913.91;4987928;28;20137;-75
2023/04/15 05:45:27;;;;;;;15.82;13.65;;;;;;;5.34;98.04;100916.44;5004364;28;20124;-75
2023/04/15 05:47:53;;;;;;;15.75;14.02;;;;;;;5.36;98.09;100921.59;4986280;28;20026;-75
2023/04/15 05:50:19;;;;;;;16.60;13.98;;;;;;;5.38;97.92;100932.78;4987981;28;20229;-75
2023/04/15 05:52:46;;;;;;;18.85;15.23;;;;;;;5.39;97.87;100934.47;4989329;28;20056;-75
2023/04/15 05:55:15;;;;;;;19.45;15.20;;;;;;;5.43;97.71;100937.78;4988432;28;20038;-75
2023/04/15 05:57:40;;;;;;;19.55;15.25;;;;;;;5.42;97.88;100928.25;4988531;28;20030;-75
2023/04/15 06:00:06;;;;;;;16.27;14.05;;;;;;;5.46;98.20;100933.22;4988746;28;20018;-75
2023/04/15 06:02:32;;;;;;;16.42;14.25;;;;;;;5.50;97.95;100945.19;4989259;28;20033;-75
2023/04/15 06:04:58;;;;;;;16.20;14.60;;;;;;;5.55;97.68;100945.81;4992106;28;20030;-75
2023/04/15 06:07:23;;;;;;;16.67;14.23;;;;;;;5.61;97.70;100955.94;4993377;28;20054;-75
2023/04/15 06:09:49;;;;;;;19.30;14.70;;;;;;;5.66;97.42;100959.16;4994428;28;20037;-75
2023/04/15 06:12:15;;;;;;;16.17;14.45;;;;;;;5.74;96.96;100958.75;4991524;28;20054;-74
2023/04/15 06:14:43;;;;;;;15.88;13.63;;;;;;;5.82;97.14;100967.03;4992906;28;20043;-74
2023/04/15 06:17:08;;;;;;;16.20;14.50;;;;;;;5.94;96.88;100962.97;4991993;28;20027;-74
2023/04/15 06:19:37;;;;;;;16.85;14.55;;;;;;;6.07;96.59;100971.84;4990826;28;20077;-74
2023/04/15 06:22:03;;;;;;;16.08;14.35;;;;;;;6.21;96.03;100977.16;4991118;28;20026;-74
2023/04/15 06:24:28;;;;;;;15.88;14.27;;;;;;;6.32;95.01;100978.34;4992380;28;20026;-74
2023/04/15 06:26:54;;;;;;;14.95;13.45;;;;;;;6.40;94.43;100978.78;4992552;28;20022;-74
2023/04/15 06:29:20;;;;;;;15.95;14.23;;;;;;;6.48;94.08;100974.84;4991973;28;20054;-74
2023/04/15 06:31:48;;;;;;;15.77;14.10;;;;;;;6.64;93.57;100984.44;4990097;28;20109;-74
2023/04/15 06:34:14;;;;;;;16.13;14.52;;;;;;;6.77;92.48;100983.66;4991872;28;20387;-74
2023/04/15 06:36:40;;;;;;;17.42;13.95;;;;;;;6.93;91.99;101001.13;4992764;28;20026;-74
2023/04/15 06:39:05;;;;;;;20.35;17.00;;;;;;;6.97;91.20;101000.03;4991206;28;20061;-75
2023/04/15 06:41:30;;;;;;;18.80;16.38;;;;;;;7.08;90.91;100997.63;4990829;28;20061;-75
2023/04/15 06:43:58;;;;;;;20.42;18.25;;;;;;;7.18;90.26;101017.94;4990799;28;20498;-75
2023/04/15 06:46:23;;;;;;;21.08;15.40;;;;;;;7.30;90.49;101011.19;5005563;28;20552;-74
2023/04/15 06:48:49;;;;;;;15.23;13.63;;;;;;;7.40;89.82;101022.81;4992943;28;20098;-75
2023/04/15 06:51:14;;;;;;;14.60;13.10;;;;;;;7.52;89.31;101024.69;4988470;28;20033;-74
2023/04/15 06:53:41;;;;;;;14.27;12.77;;;;;;;7.67;88.79;101027.38;4991844;28;20054;-75
2023/04/15 06:56:09;;;;;;;14.77;13.27;;;;;;;7.71;87.66;101031.50;4992313;28;20026;-75
2023/04/15 06:58:35;;;;;;;19.25;15.23;;;;;;;7.76;87.32;101034.69;4991559;28;20042;-76
2023/04/15 07:01:02;;;;;;;15.00;12.68;;;;;;;7.86;86.39;101031.41;4990167;28;20047;-76
2023/04/15 07:03:27;;;;;;;14.13;12.63;;;;;;;7.95;86.32;101043.13;5007904;28;20026;-76
2023/04/15 07:05:53;;;;;;;13.65;11.85;;;;;;;8.06;86.44;101032.84;4992739;28;20391;-75
2023/04/15 07:08:20;;;;;;;13.63;11.30;;;;;;;8.21;86.01;101045.94;4991114;28;20065;-75
2023/04/15 07:10:46;;;;;;;12.40;11.20;;;;;;;8.43;86.12;101046.38;4990953;28;20034;-76
2023/04/15 07:13:12;;;;;;;14.98;11.63;;;;;;;8.61;85.24;101042.59;5005634;28;20458;-76
2023/04/15 07:15:37;;;;;;;12.57;11.25;;;;;;;8.71;84.50;101056.81;4990535;28;20049;-76
2023/04/15 07:18:02;;;;;;;14.38;11.18;;;;;;;8.71;83.11;101059.44;4987261;28;20061;-76
2023/04/15 07:20:30;;;;;;;14.18;11.27;;;;;;;8.79;83.10;101059.78;4999168;28;20013;-75
2023/04/15 07:22:56;;;;;;;12.05;10.68;;;;;;;8.96;83.11;101065.75;4988303;28;20030;-75
2023/04/15 07:25:22;;;;;;;11.90;10.70;;;;;;;9.12;83.03;101063.81;4990802;28;20030;-75
2023/04/15 07:27:47;;;;;;;11.82;10.73;;;;;;;9.21;82.38;101071.13;5005081;28;20480;-75
2023/04/15 07:30:14;;;;;;;12.77;11.52;;;;;;;9.37;82.46;101063.94;4990302;28;20023;-74
2023/04/15 07:32:40;;;;;;;12.35;11.15;;;;;;;9.42;80.95;101074.97;5002732;28;20394;-75
2023/04/15 07:35:06;;;;;;;12.82;11.55;;;;;;;9.55;81.12;101068.91;4994658;28;20030;-74
2023/04/15 07:37:32;;;;;;;14.00;12.50;;;;;;;9.64;80.38;101073.56;4990420;28;20459;-74
2023/04/15 07:39:57;;;;;;;13.07;11.32;;;;;;;9.81;80.02;101081.16;4991207;28;20019;-75
2023/04/15 07:42:23;;;;;;;13.45;12.07;;;;;;;9.99;78.95;101086.97;4990411;28;20074;-75
2023/04/15 07:44:48;;;;;;;13.35;11.43;;;;;;;10.10;77.36;101083.63;4991187;28;20112;-75
2023/04/15 07:47:15;;;;;;;11.77;10.60;;;;;;;10.21;76.91;101086.38;4990818;28;20049;-75
2023/04/15 07:49:42;;;;;;;12.55;11.00;;;;;;;10.45;76.59;101105.75;4991685;28;20088;-75
2023/04/15 07:52:07;;;;;;;10.82;9.77;;;;;;;10.55;75.21;101098.91;4984229;28;20071;-76
2023/04/15 07:54:33;;;;;;;10.60;9.65;;;;;;;10.62;72.96;101105.41;4987000;28;20026;-76
2023/04/15 07:56:58;;;;;;;10.25;8.57;;;;;;;10.66;72.31;101106.03;4990087;28;20034;-76
2023/04/15 07:59:23;;;;;;;10.35;8.52;;;;;;;10.73;71.59;101107.28;4988679;28;20491;-75
2023/04/15 08:01:50;;;;;;;8.90;7.90;;;;;;;10.79;70.90;101111.25;4995203;28;20037;-75
2023/04/15 08:04:16;;;;;;;9.75;8.32;;;;;;;10.82;70.81;101111.06;5006315;28;20111;-75
2023/04/15 08:06:42;;;;;;;16.35;8.48;;;;;;;10.93;71.00;101125.16;5006488;28;20116;-75
2023/04/15 08:09:07;;;;;;;9.32;8.32;;;;;;;11.03;71.07;101124.50;4989773;28;20544;-76
2023/04/15 08:11:32;;;;;;;9.35;8.20;;;;;;;11.08;70.65;101123.22;4989547;28;20034;-76
2023/04/15 08:13:58;;;;;;;13.95;8.48;;;;;;;11.16;70.10;101114.75;4998943;28;20022;-75
2023/04/15 08:16:33;;;;;;;9.90;8.70;;;;;;;11.30;69.64;101128.63;5004832;28;20100;-76
2023/04/15 08:18:59;;;;;;;9.10;8.13;;;;;;;11.34;69.21;101134.50;5007120;28;20037;-76
2023/04/15 08:21:26;;;;;;;8.57;7.68;;;;;;;11.35;68.33;101140.63;4996516;28;20037;-76
2023/04/15 08:23:53;;;;;;;9.52;7.75;;;;;;;11.38;68.42;101143.03;4989786;28;20503;-76
2023/04/15 08:26:23;;;;;;;9.85;7.55;;;;;;;11.51;68.08;101144.66;5010695;28;20032;-76
2023/04/15 08:28:48;;;;;;;8.73;7.80;;;;;;;11.84;68.91;101149.25;5010155;28;20029;-75
2023/04/15 08:31:15;;;;;;;9.93;8.68;;;;;;;11.98;66.98;101155.28;4995740;28;20022;-74
2023/04/15 08:33:45;;;;;;;10.13;8.82;;;;;;;12.09;67.02;101158.00;4989328;28;20439;-74
2023/04/15 08:36:12;;;;;;;10.32;8.32;;;;;;;12.22;67.37;101153.47;4989587;28;20030;-75
2023/04/15 08:38:38;;;;;;;13.30;8.63;;;;;;;12.25;66.08;101163.78;4989571;28;20101;-75
2023/04/15 08:41:15;;;;;;;8.82;7.80;;;;;;;12.50;67.07;101171.53;4989675;28;20030;-74
2023/04/15 08:43:48;;;;;;;9.60;8.68;;;;;;;12.69;64.95;101170.91;5005328;28;20045;-75
2023/04/15 08:46:17;;;;;;;8.50;7.70;;;;;;;12.86;64.57;101169.63;5007390;28;20026;-75
2023/04/15 08:48:46;;;;;;;8.75;7.85;;;;;;;13.10;63.90;101178.25;4997681;28;20019;-75
2023/04/15 08:51:14;;;;;;;9.70;6.70;;;;;;;13.30;61.92;101173.22;4988586;28;20022;-76
2023/04/15 08:53:42;;;;;;;7.25;5.82;;;;;;;13.17;59.25;101190.03;4988709;28;20026;-76
2023/04/15 08:56:09;;;;;;;12.23;6.00;;;;;;;13.24;59.78;101190.41;4988019;28;20026;-76
2023/04/15 08:58:35;;;;;;;7.40;5.70;;;;;;;13.27;59.06;101190.16;4989856;28;20025;-75
2023/04/15 09:01:05;;;;;;;6.60;5.90;;;;;;;13.45;59.74;101199.25;4987867;28;20033;-76
2023/04/15 09:03:31;;;;;;;7.72;6.07;;;;;;;13.72;59.97;101200.63;4987538;28;20026;-76
2023/04/15 09:05:58;;;;;;;6.88;5.47;;;;;;;13.91;58.51;101198.16;4994222;28;20113;-76
2023/04/15 09:08:24;;;;;;;8.48;4.60;;;;;;;13.96;54.10;101205.72;4995108;28;20034;-76
2023/04/15 09:10:50;;;;;;;9.63;4.40;;;;;;;13.90;52.85;101211.50;4989887;28;20606;-76
2023/04/15 09:13:16;;;;;;;6.60;4.03;;;;;;;13.76;52.55;101218.78;4988403;28;20061;-75
2023/04/15 09:15:41;;;;;;;7.93;5.28;;;;;;;13.71;52.85;101220.94;5001225;28;20450;-76
2023/04/15 09:18:07;;;;;;;6.50;4.50;;;;;;;13.86;55.32;101218.00;4992604;28;20026;-76
2023/04/15 09:20:42;;;;;;;5.43;4.10;;;;;;;14.06;55.38;101230.47;5002920;28;20089;-76
2023/04/15 09:23:14;;;;;;;6.25;4.30;;;;;;;14.02;54.17;101239.63;4987742;28;20034;-75
2023/04/15 09:25:43;;;;;;;5.70;4.70;;;;;;;13.81;53.07;101242.19;4989372;28;20022;-75
2023/04/15 09:28:10;;;;;;;5.22;4.72;;;;;;;13.88;54.09;101248.66;5001849;28;20036;-75
2023/04/15 09:30:36;;;;;;;6.82;5.57;;;;;;;13.91;54.82;101253.72;5008873;28;20026;-74
2023/04/15 09:33:09;;;;;;;8.15;4.93;;;;;;;13.83;54.67;101255.28;4988835;28;20501;-76
2023/04/15 09:35:35;;;;;;;7.00;4.90;;;;;;;13.85;54.31;101256.00;5003865;28;20034;-75
2023/04/15 09:38:06;;;;;;;6.53;5.30;;;;;;;13.99;54.72;101245.97;4989399;28;20030;-76
2023/04/15 09:40:37;;;;;;;5.88;4.68;;;;;;;14.01;53.33;101261.75;4993010;28;20026;-76
2023/04/15 09:43:06;;;;;;;5.68;4.70;;;;;;;14.04;53.31;101261.50;4991383;28;20054;-75
2023/04/15 09:45:34;;;;;;;7.90;4.70;;;;;;;14.12;53.06;101259.06;4992102;28;20030;-75
2023/04/15 09:48:27;;;;;;;5.53;4.50;;;;;;;14.52;52.88;101253.13;4993470;28;20025;-75
2023/04/15 09:50:53;;;;;;;;;;;;;;;14.97;53.31;101267.78;4981486;28;20041;-76
2023/04/15 09:53:21;;;;;;;4.70;3.35;;;;;;;15.07;51.46;101259.03;4991658;28;19917;-76
2023/04/15 09:55:50;;;;;;;4.18;2.83;;;;;;;15.30;49.90;101265.84;4992857;28;20541;-76
2023/04/15 09:58:21;;;;;;;4.05;3.15;;;;;;;15.54;48.46;101273.44;4992739;28;20038;-76
2023/04/15 10:00:49;;;;;;;4.45;4.05;;;;;;;15.81;48.63;101264.91;4992523;28;20446;-76
2023/04/15 10:03:31;;;;;;;6.65;3.50;;;;;;;16.57;48.80;101273.88;4991523;28;20025;-76
2023/04/15 10:06:04;;;;;;;4.32;3.05;;;;;;;17.17;45.62;101277.94;4993295;28;20386;-76
2023/04/15 10:08:33;;;;;;;4.40;3.03;;;;;;;17.77;44.35;101275.72;4992176;28;20046;-76
2023/04/15 10:11:01;;;;;;;6.80;3.30;;;;;;;18.03;43.50;101273.19;4991394;28;20030;-76
2023/04/15 10:13:35;;;;;;;3.63;3.10;;;;;;;17.76;42.09;101286.53;4993142;28;20030;-76
2023/04/15 10:16:13;;;;;;;6.70;3.30;;;;;;;17.53;43.04;101284.22;4991891;28;20383;-76
2023/04/15 10:18:42;;;;;;;12.10;3.92;;;;;;;17.99;42.88;101279.78;4971479;28;20042;-76
2023/04/15 10:21:08;;;;;;;5.82;3.70;;;;;;;18.51;42.67;101266.63;4973423;28;20031;-75
2023/04/15 10:23:37;;;;;;;3.80;3.33;;;;;;;19.35;41.16;101269.50;4972289;28;20031;-75
2023/04/15 10:26:04;;;;;;;4.38;3.50;;;;;;;20.47;39.13;101274.50;4991184;28;20037;-76
2023/04/15 10:28:29;;;;;;;5.65;3.53;;;;;;;20.35;39.20;101278.44;4993484;28;20026;-76
2023/04/15 10:30:58;;;;;;;4.00;3.40;;;;;;;19.80;38.16;101273.69;4992721;28;20517;-76
2023/04/15 10:33:25;;;;;;;4.35;3.00;;;;;;;19.97;38.51;101280.72;5007940;28;20491;-75
2023/04/15 10:35:53;;;;;;;3.42;3.13;;;;;;;19.98;37.77;101282.41;4991434;28;20038;-76
2023/04/15 10:38:38;;;;;;;3.95;2.60;;;;;;;19.85;39.13;101287.38;4992004;28;20534;-75
2023/04/15 10:41:22;;;;;;;3.80;2.47;;;;;;;19.13;39.74;101294.06;4990757;28;20387;-76
2023/04/15 10:43:53;;;;;;;4.57;3.45;;;;;;;18.17;42.16;101296.63;4993076;28;20537;-75
2023/04/15 10:46:37;;;;;;;3.63;3.30;;;;;;;17.64;43.79;101295.69;4992116;28;20026;-75
2023/04/15 10:49:07;;;;;;;4.22;3.80;;;;;;;16.75;45.15;101303.22;4988914;28;20105;-75
2023/04/15 10:51:32;;;;;;;3.90;3.50;;;;;;;16.33;46.41;101300.00;5004447;28;20034;-75
2023/04/15 10:54:01;;;;;;;5.72;3.63;;;;;;;15.90;47.58;101301.22;4990967;28;20130;-76
2023/04/15 10:56:32;;;;;;;4.45;2.80;;;;;;;15.72;45.83;101308.16;4990603;28;20033;-76
2023/04/15 10:58:59;;;;;;;5.90;2.47;;;;;;;15.50;45.37;101301.22;4991847;28;20102;-76
2023/04/15 11:01:52;;;;;;;4.03;2.42;;;;;;;15.47;47.20;101320.03;5007049;28;20050;-76
2023/04/15 11:04:58;;;;;;;3.53;2.70;;;;;;;15.13;47.22;101316.81;4990987;28;20502;-75
2023/04/15 11:07:35;;;;;;;5.50;2.47;;;;;;;14.96;47.96;101320.91;4990677;28;20058;-76
2023/04/15 11:10:00;;;;;;;4.68;3.08;;;;;;;14.87;47.69;101306.63;4991927;28;20034;-76
2023/04/15 11:12:35;;;;;;;5.80;3.00;;;;;;;14.85;49.57;101313.88;4990480;28;20034;-77
2023/04/15 11:15:27;;;;;;;4.95;3.17;;;;;;;15.07;49.17;101312.88;4991462;28;20030;-74
2023/04/15 11:17:52;;;;;;;3.95;3.15;;;;;;;15.16;49.69;101309.44;4994187;28;20065;-75
2023/04/15 11:20:18;;;;;;;3.80;3.35;;;;;;;15.13;47.96;101308.84;4991228;28;20081;-74
2023/04/15 11:22:48;;;;;;;4.80;2.95;;;;;;;15.13;47.79;101312.34;4991801;28;20022;-74